createdAt,value
2023-05-04T00:01:02.161Z,44.25
2023-05-04T00:03:30.301Z,56.30
2023-05-04T00:05:58.039Z,40.37
2023-05-04T00:08:26.105Z,42.72
2023-05-04T00:10:55.841Z,68.38
2023-05-04T00:13:24.250Z,52.40
2023-05-04T00:15:52.762Z,47.80
2023-05-04T00:18:20.333Z,122.70
2023-05-04T00:20:48.077Z,144.25
2023-05-04T00:23:15.707Z,108.00
2023-05-04T00:25:44.102Z,101.70
2023-05-04T00:28:12.043Z,115.45
2023-05-04T00:30:39.940Z,111.30
2023-05-04T00:33:07.729Z,116.82
2023-05-04T00:35:35.258Z,157.73
2023-05-04T00:38:04.099Z,142.85
2023-05-04T00:40:32.111Z,143.43
2023-05-04T00:43:00.102Z,637.90
2023-05-04T00:45:28.686Z,784.97
2023-05-04T00:47:56.997Z,774.70
2023-05-04T00:50:26.278Z,775.80
2023-05-04T00:52:57.538Z,776.33
2023-05-04T00:55:25.458Z,726.78
2023-05-04T00:57:53.284Z,713.63
2023-05-04T01:00:21.062Z,717.80
2023-05-04T01:02:49.673Z,680.83
2023-05-04T01:05:17.380Z,688.00
2023-05-04T01:07:56.145Z,647.92
2023-05-04T01:10:47.937Z,729.20
2023-05-04T01:13:19.350Z,711.78
2023-05-04T01:15:47.960Z,753.97
2023-05-04T01:18:16.641Z,750.45
2023-05-04T01:20:44.241Z,708.70
2023-05-04T01:23:12.249Z,680.38
2023-05-04T01:25:51.454Z,655.17
2023-05-04T01:28:39.731Z,681.40
2023-05-04T01:31:10.592Z,663.08
2023-05-04T01:33:38.765Z,640.80
2023-05-04T01:36:08.588Z,624.05
2023-05-04T01:38:36.487Z,629.50
2023-05-04T01:41:04.708Z,595.50
2023-05-04T01:43:32.265Z,574.92
2023-05-04T01:45:59.890Z,569.05
2023-05-04T01:48:28.395Z,553.78
2023-05-04T01:50:56.105Z,540.33
2023-05-04T01:53:23.612Z,565.93
2023-05-04T01:55:51.713Z,671.67
2023-05-04T01:58:19.771Z,633.53
2023-05-04T02:00:47.931Z,630.30
2023-05-04T02:03:16.000Z,601.83
2023-05-04T02:05:43.632Z,589.22
2023-05-04T02:08:11.539Z,558.00
2023-05-04T02:10:39.585Z,563.03
2023-05-04T02:13:07.242Z,551.75
2023-05-04T02:15:35.357Z,551.75
2023-05-04T02:18:03.397Z,573.90
2023-05-04T02:20:31.374Z,543.90
2023-05-04T02:22:59.096Z,566.87
2023-05-04T02:25:26.641Z,560.08
2023-05-04T02:27:54.247Z,536.78
2023-05-04T02:30:21.923Z,543.45
2023-05-04T02:32:50.169Z,534.38
2023-05-04T02:35:18.364Z,478.30
2023-05-04T02:37:45.925Z,528.63
2023-05-04T02:40:13.863Z,533.47
2023-05-04T02:42:41.663Z,514.03
2023-05-04T02:45:10.086Z,514.75
2023-05-04T02:47:37.935Z,472.33
2023-05-04T02:50:06.899Z,453.60
2023-05-04T02:52:35.007Z,478.92
2023-05-04T02:55:05.461Z,438.10
2023-05-04T02:57:33.456Z,426.60
2023-05-04T03:00:00.996Z,381.95
2023-05-04T03:02:28.666Z,421.43
2023-05-04T03:04:56.433Z,433.00
2023-05-04T03:07:24.188Z,450.67
2023-05-04T03:09:52.157Z,439.35
2023-05-04T03:12:20.526Z,491.67
2023-05-04T03:14:48.152Z,508.40
2023-05-04T03:17:16.619Z,502.20
2023-05-04T03:19:45.566Z,497.25
2023-05-04T03:22:13.849Z,441.63
2023-05-04T03:24:41.812Z,434.70
2023-05-04T03:27:09.879Z,477.60
2023-05-04T03:29:38.765Z,455.73
2023-05-04T03:32:07.565Z,431.58
2023-05-04T03:34:35.755Z,410.55
2023-05-04T03:37:06.327Z,432.15
2023-05-04T03:39:34.382Z,669.53
2023-05-04T03:42:02.684Z,838.50
2023-05-04T03:44:30.779Z,825.95
2023-05-04T03:46:59.173Z,823.90
2023-05-04T03:49:28.023Z,825.03
2023-05-04T03:51:55.756Z,823.38
2023-05-04T03:54:23.386Z,817.83
2023-05-04T03:56:50.992Z,811.58
2023-05-04T03:59:19.198Z,810.85
2023-05-04T04:01:47.404Z,807.67
2023-05-04T04:04:14.992Z,807.93
2023-05-04T04:06:43.531Z,801.70
2023-05-04T04:09:11.365Z,799.63
2023-05-04T04:11:39.074Z,795.20
2023-05-04T04:14:07.049Z,792.38
2023-05-04T04:16:34.755Z,800.87
2023-05-04T04:19:02.422Z,801.35
2023-05-04T04:21:30.500Z,796.85
2023-05-04T04:23:58.433Z,794.03
2023-05-04T04:26:25.970Z,790.45
2023-05-04T04:28:53.510Z,777.40
2023-05-04T04:31:22.051Z,777.25
2023-05-04T04:33:53.446Z,771.63
2023-05-04T04:36:25.494Z,769.38
2023-05-04T04:38:53.356Z,773.42
2023-05-04T04:41:30.210Z,760.58
2023-05-04T04:44:03.046Z,758.55
2023-05-04T04:46:31.185Z,732.33
2023-05-04T04:48:59.205Z,713.88
2023-05-04T04:51:27.893Z,697.53
2023-05-04T04:53:55.932Z,702.15
2023-05-04T04:56:23.532Z,680.22
2023-05-04T04:58:51.803Z,692.38
2023-05-04T05:01:19.881Z,690.83
2023-05-04T05:03:49.284Z,678.03
2023-05-04T05:06:17.038Z,667.95
2023-05-04T05:08:45.071Z,672.55
2023-05-04T05:11:12.949Z,668.33
2023-05-04T05:13:40.962Z,615.35
2023-05-04T05:16:09.539Z,607.08
2023-05-04T05:18:37.432Z,631.13
2023-05-04T05:21:05.830Z,603.00
2023-05-04T05:23:33.747Z,617.08
2023-05-04T05:26:03.234Z,553.77
2023-05-04T05:28:31.233Z,567.53
2023-05-04T05:30:58.800Z,551.20
2023-05-04T05:33:26.413Z,550.03
2023-05-04T05:35:54.108Z,537.85
2023-05-04T05:38:22.331Z,451.60
2023-05-04T05:40:50.277Z,405.83
2023-05-04T05:43:18.046Z,322.83
2023-05-04T05:45:45.585Z,261.50
2023-05-04T05:48:15.090Z,142.65
2023-05-04T05:50:43.042Z,113.32
2023-05-04T05:53:10.523Z,123.07
2023-05-04T05:55:38.101Z,99.13
2023-05-04T05:58:05.818Z,106.75
2023-05-04T06:00:34.131Z,87.93
2023-05-04T06:03:01.822Z,51.20
2023-05-04T06:05:29.560Z,70.03
2023-05-04T06:07:57.037Z,50.73
2023-05-04T06:10:25.237Z,28.48
2023-05-04T06:12:53.234Z,33.10
2023-05-04T06:15:20.858Z,19.80
2023-05-04T06:17:49.872Z,13.18
2023-05-04T06:20:17.972Z,15.63
2023-05-04T06:22:46.000Z,13.43
2023-05-04T06:25:14.076Z,7.00
2023-05-04T06:27:41.589Z,12.75
2023-05-04T06:30:10.117Z,23.88
2023-05-04T06:32:38.525Z,9.65
2023-05-04T06:35:09.191Z,22.13
2023-05-04T06:37:37.954Z,28.33
2023-05-04T06:40:07.301Z,47.67
2023-05-04T06:42:35.001Z,33.13
2023-05-04T06:45:03.306Z,14.55
2023-05-04T06:47:34.871Z,18.27
2023-05-04T06:50:07.000Z,115.47
2023-05-04T06:52:34.852Z,125.22
2023-05-04T06:55:02.483Z,54.45
2023-05-04T06:57:30.516Z,50.63
2023-05-04T06:59:58.260Z,66.25
2023-05-04T07:02:26.198Z,59.25
2023-05-04T07:04:54.697Z,46.85
2023-05-04T07:07:22.699Z,20.75
2023-05-04T07:09:50.662Z,9.10
2023-05-04T07:12:18.702Z,6.93
2023-05-04T07:14:47.201Z,14.95
2023-05-04T07:17:14.848Z,32.13
2023-05-04T07:19:43.084Z,45.13
2023-05-04T07:22:10.678Z,69.47
2023-05-04T07:24:38.197Z,12.77
2023-05-04T07:27:06.571Z,22.25
2023-05-04T07:29:35.476Z,64.53
2023-05-04T07:32:03.560Z,38.47
2023-05-04T07:34:44.547Z,24.63
2023-05-04T07:37:14.325Z,50.20
2023-05-04T07:39:42.493Z,44.22
2023-05-04T07:42:11.769Z,90.43
2023-05-04T07:44:40.133Z,28.45
2023-05-04T07:47:08.292Z,6.05
2023-05-04T07:49:36.443Z,82.25
2023-05-04T07:52:04.629Z,32.92
2023-05-04T07:54:32.707Z,8.93
2023-05-04T07:57:04.840Z,7.43
2023-05-04T07:59:33.284Z,38.53
2023-05-04T08:02:00.922Z,30.40
2023-05-04T08:04:28.583Z,70.78
2023-05-04T08:06:56.611Z,19.08
2023-05-04T08:09:24.172Z,7.20
2023-05-04T08:11:52.665Z,5.78
2023-05-04T08:14:20.369Z,11.07
2023-05-04T08:16:47.848Z,6.10
2023-05-04T08:19:15.436Z,5.80
2023-05-04T08:21:43.076Z,9.02
2023-05-04T08:24:11.474Z,8.98
2023-05-04T08:26:39.800Z,5.00
2023-05-04T08:29:10.764Z,7.25
2023-05-04T08:31:40.516Z,5.47
2023-05-04T08:34:08.616Z,5.97
2023-05-04T08:36:36.179Z,7.60
2023-05-04T08:39:04.264Z,6.13
2023-05-04T08:41:31.867Z,6.13
2023-05-04T08:43:59.935Z,7.35
2023-05-04T08:46:31.482Z,5.63
2023-05-04T08:48:59.199Z,10.30
2023-05-04T08:51:28.996Z,7.40
2023-05-04T08:53:57.442Z,7.38
2023-05-04T08:56:25.481Z,6.50
2023-05-04T08:58:57.951Z,6.47
2023-05-04T09:01:26.546Z,6.57
2023-05-04T09:03:55.564Z,6.30
2023-05-04T09:06:24.683Z,7.93
2023-05-04T09:08:52.206Z,9.98
2023-05-04T09:11:20.211Z,7.03
2023-05-04T09:13:47.836Z,10.20
2023-05-04T09:16:16.434Z,6.70
2023-05-04T09:18:44.951Z,8.25
2023-05-04T09:21:12.630Z,9.37
2023-05-04T09:23:51.394Z,6.85
2023-05-04T09:26:30.062Z,9.20
2023-05-04T09:29:09.836Z,6.38
2023-05-04T09:31:47.708Z,7.13
2023-05-04T09:34:16.254Z,6.65
2023-05-04T09:36:44.923Z,8.23
2023-05-04T09:39:13.987Z,8.35
2023-05-04T09:41:42.439Z,8.35
2023-05-04T09:44:21.472Z,9.35
2023-05-04T09:46:53.658Z,8.38
2023-05-04T09:49:35.132Z,7.55
2023-05-04T09:52:05.204Z,7.57
2023-05-04T09:54:35.140Z,6.55
2023-05-04T09:57:14.103Z,6.17
2023-05-04T09:59:42.346Z,7.20
2023-05-04T10:02:22.659Z,10.93
2023-05-04T10:04:52.861Z,5.97
2023-05-04T10:07:21.301Z,90.18
2023-05-04T10:09:50.431Z,313.17
2023-05-04T10:12:18.528Z,5.38
2023-05-04T10:14:47.229Z,7.13
2023-05-04T10:17:30.086Z,7.40
2023-05-04T10:20:10.404Z,9.77
2023-05-04T10:23:04.650Z,5.50
2023-05-04T10:26:13.361Z,251.90
2023-05-04T10:28:40.846Z,5.68
2023-05-04T10:31:09.401Z,992.53
2023-05-04T10:33:43.732Z,5.38
2023-05-04T10:36:12.297Z,6.78
2023-05-04T10:38:40.466Z,6.17
2023-05-04T10:41:18.503Z,707.10
2023-05-04T10:43:53.106Z,6.07
2023-05-04T10:46:22.296Z,1001.80
2023-05-04T10:48:51.126Z,5.75
2023-05-04T10:51:35.723Z,6.22
2023-05-04T10:54:19.141Z,7.07
2023-05-04T10:56:47.069Z,5.20
2023-05-04T10:59:15.090Z,1011.85
2023-05-04T11:01:45.895Z,7.57
2023-05-04T11:04:22.998Z,743.33
2023-05-04T11:07:02.514Z,7.43
2023-05-04T11:09:39.978Z,9.25
2023-05-04T11:12:10.798Z,7.05
2023-05-04T11:14:42.763Z,936.03
2023-05-04T11:17:27.374Z,5.30
2023-05-04T11:19:56.222Z,5.00
2023-05-04T11:22:24.087Z,6.20
2023-05-04T11:24:54.256Z,4.60
2023-05-04T11:27:25.208Z,3.75
2023-05-04T11:30:04.496Z,4.80
2023-05-04T11:32:43.720Z,5.40
2023-05-04T11:35:16.369Z,11.77
2023-05-04T11:37:46.375Z,15.98
2023-05-04T11:40:19.855Z,181.95
2023-05-04T11:42:49.797Z,358.15
2023-05-04T11:45:24.565Z,8.32
2023-05-04T11:47:53.716Z,29.45
2023-05-04T11:50:21.596Z,182.57
2023-05-04T11:52:49.969Z,331.88
2023-05-04T11:55:31.317Z,5.70
2023-05-04T11:58:08.198Z,278.15
2023-05-04T12:00:49.801Z,456.65
2023-05-04T12:03:29.964Z,784.05
2023-05-04T12:06:04.017Z,5.70
2023-05-04T12:08:38.085Z,268.52
2023-05-04T12:11:10.253Z,6.90
2023-05-04T12:13:38.092Z,14.00
2023-05-04T12:16:14.780Z,119.93
2023-05-04T12:18:45.429Z,341.95
2023-05-04T12:21:17.738Z,330.92
2023-05-04T12:23:46.925Z,414.10
2023-05-04T12:26:16.276Z,259.17
2023-05-04T12:28:46.102Z,5.40
2023-05-04T12:31:14.221Z,9.93
2023-05-04T12:33:41.779Z,6.65
2023-05-04T12:36:10.315Z,171.73
2023-05-04T12:38:38.080Z,426.17
2023-05-04T12:41:07.548Z,738.17
2023-05-04T12:43:35.765Z,5.45
2023-05-04T12:46:03.508Z,318.67
2023-05-04T12:48:33.008Z,6.82
2023-05-04T12:51:04.063Z,602.00
2023-05-04T12:53:32.403Z,6.80
2023-05-04T12:56:01.895Z,293.90
2023-05-04T12:58:31.186Z,7.75
2023-05-04T13:00:59.748Z,767.28
2023-05-04T13:03:27.713Z,8.00
2023-05-04T13:05:57.600Z,8.10
2023-05-04T13:08:25.971Z,5.28
2023-05-04T13:10:53.587Z,5.60
2023-05-04T13:13:24.551Z,7.40
2023-05-04T13:15:52.713Z,4.43
2023-05-04T13:18:20.277Z,6.78
2023-05-04T13:20:48.474Z,6.03
2023-05-04T13:23:16.671Z,5.60
2023-05-04T13:25:44.499Z,4.85
2023-05-04T13:28:12.646Z,4.53
2023-05-04T13:30:40.649Z,40.53
2023-05-04T13:33:20.819Z,5.35
2023-05-04T13:35:58.164Z,5.25
2023-05-04T13:38:27.048Z,6.35
2023-05-04T13:40:55.671Z,5.50
2023-05-04T13:43:23.781Z,5.30
2023-05-04T13:45:52.561Z,5.47
2023-05-04T13:48:20.131Z,7.15
2023-05-04T13:50:48.052Z,4.88
2023-05-04T13:53:15.751Z,4.72
2023-05-04T13:55:43.925Z,3.90
2023-05-04T13:58:11.964Z,5.43
2023-05-04T14:00:39.607Z,5.30
2023-05-04T14:03:07.544Z,6.88
2023-05-04T14:05:35.839Z,7.25
2023-05-04T14:08:03.946Z,20.67
2023-05-04T14:10:32.374Z,5.95
2023-05-04T14:13:00.195Z,6.68
2023-05-04T14:15:27.935Z,9.27
2023-05-04T14:17:55.571Z,6.28
2023-05-04T14:20:23.244Z,4.00
2023-05-04T14:22:51.557Z,5.15
2023-05-04T14:25:19.619Z,4.05
2023-05-04T14:27:47.147Z,4.97
2023-05-04T14:30:15.061Z,5.35
2023-05-04T14:32:42.822Z,5.00
2023-05-04T14:35:11.150Z,6.22
2023-05-04T14:37:40.864Z,4.00
2023-05-04T14:40:10.844Z,8.05
2023-05-04T14:42:39.009Z,4.05
2023-05-04T14:45:08.497Z,4.15
2023-05-04T14:47:36.610Z,27.67
2023-05-04T14:50:05.973Z,47.00
2023-05-04T14:52:34.200Z,5.30
2023-05-04T14:55:02.664Z,7.93
2023-05-04T14:57:30.224Z,3.72
2023-05-04T14:59:58.237Z,8.82
2023-05-04T15:02:26.441Z,4.95
2023-05-04T15:04:54.177Z,4.15
2023-05-04T15:07:21.858Z,6.60
2023-05-04T15:09:49.340Z,4.25
2023-05-04T15:12:17.666Z,3.75
2023-05-04T15:14:46.338Z,14.68
2023-05-04T15:17:14.299Z,6.70
2023-05-04T15:19:41.840Z,13.73
2023-05-04T15:22:09.570Z,5.47
2023-05-04T15:24:37.543Z,7.80
2023-05-04T15:27:06.230Z,4.60
2023-05-04T15:29:33.835Z,5.10
2023-05-04T15:32:01.868Z,5.45
2023-05-04T15:34:29.505Z,35.85
2023-05-04T15:36:57.522Z,51.78
2023-05-04T15:39:25.138Z,8.93
2023-05-04T15:41:52.706Z,4.32
2023-05-04T15:44:23.568Z,64.80
2023-05-04T15:46:51.396Z,4.13
2023-05-04T15:49:19.389Z,5.00
2023-05-04T15:51:47.805Z,6.78
2023-05-04T15:54:15.448Z,5.43
2023-05-04T15:56:43.398Z,5.57
2023-05-04T15:59:11.108Z,5.35
2023-05-04T16:01:40.052Z,4.07
2023-05-04T16:04:08.184Z,9.63
2023-05-04T16:06:36.454Z,52.53
2023-05-04T16:09:04.231Z,4.85
2023-05-04T16:11:33.239Z,6.25
2023-05-04T16:14:00.971Z,8.73
2023-05-04T16:16:28.594Z,13.98
2023-05-04T16:18:56.793Z,20.23
2023-05-04T16:21:24.674Z,4.75
2023-05-04T16:23:52.305Z,4.88
2023-05-04T16:26:20.218Z,51.50
2023-05-04T16:28:48.395Z,4.50
2023-05-04T16:31:16.398Z,4.18
2023-05-04T16:33:47.500Z,5.07
2023-05-04T16:36:15.379Z,93.72
2023-05-04T16:38:43.170Z,5.57
2023-05-04T16:41:11.557Z,5.53
2023-05-04T16:43:39.516Z,5.95
2023-05-04T16:46:07.719Z,106.38
2023-05-04T16:48:37.380Z,7.18
2023-05-04T16:51:06.094Z,193.15
2023-05-04T16:53:35.074Z,4.68
2023-05-04T16:56:03.156Z,7.78
2023-05-04T16:58:30.904Z,5.80
2023-05-04T17:00:58.563Z,17.55
2023-05-04T17:03:26.260Z,6.95
2023-05-04T17:05:54.254Z,212.32
2023-05-04T17:08:23.452Z,6.57
2023-05-04T17:10:51.075Z,7.70
2023-05-04T17:13:18.906Z,6.43
2023-05-04T17:15:47.145Z,5.32
2023-05-04T17:18:15.309Z,6.22
2023-05-04T17:20:42.896Z,4.82
2023-05-04T17:23:11.530Z,6.60
2023-05-04T17:25:39.198Z,156.90
2023-05-04T17:28:07.299Z,12.25
2023-05-04T17:30:35.762Z,6.07
2023-05-04T17:33:04.034Z,7.63
2023-05-04T17:35:31.965Z,7.15
2023-05-04T17:37:59.503Z,7.50
2023-05-04T17:40:28.845Z,27.58
2023-05-04T17:42:57.133Z,9.27
2023-05-04T17:45:25.633Z,24.00
2023-05-04T17:47:53.581Z,110.72
2023-05-04T17:50:21.396Z,38.27
2023-05-04T17:52:55.848Z,7.72
2023-05-04T17:55:25.026Z,296.08
2023-05-04T17:57:54.693Z,361.70
2023-05-04T18:00:22.991Z,180.52
2023-05-04T18:02:50.793Z,125.40
2023-05-04T18:05:20.096Z,20.80
2023-05-04T18:07:47.767Z,10.13
2023-05-04T18:10:15.913Z,21.95
2023-05-04T18:12:43.554Z,8.88
2023-05-04T18:15:16.461Z,7.13
2023-05-04T18:17:44.551Z,7.85
2023-05-04T18:20:13.348Z,9.43
2023-05-04T18:22:41.285Z,8.03
2023-05-04T18:25:09.232Z,7.50
2023-05-04T18:27:37.062Z,7.90
2023-05-04T18:30:08.567Z,7.45
2023-05-04T18:32:36.657Z,7.70
2023-05-04T18:35:04.482Z,8.75
2023-05-04T18:37:33.609Z,8.52
2023-05-04T18:40:01.331Z,7.75
2023-05-04T18:42:29.228Z,15.65
2023-05-04T18:44:57.343Z,23.17
2023-05-04T18:47:24.898Z,129.63
2023-05-04T18:49:56.201Z,119.90
2023-05-04T18:52:24.296Z,87.95
2023-05-04T18:54:52.341Z,88.40
2023-05-04T18:57:20.218Z,30.80
2023-05-04T18:59:48.173Z,79.20
2023-05-04T19:02:16.815Z,64.90
2023-05-04T19:04:47.150Z,28.92
2023-05-04T19:07:15.732Z,26.35
2023-05-04T19:09:45.839Z,76.78
2023-05-04T19:12:14.205Z,50.72
2023-05-04T19:14:44.669Z,24.33
2023-05-04T19:17:14.805Z,19.38
2023-05-04T19:19:42.386Z,11.52
2023-05-04T19:22:11.767Z,15.50
2023-05-04T19:24:39.284Z,13.10
2023-05-04T19:27:07.986Z,15.50
2023-05-04T19:29:36.452Z,31.35
2023-05-04T19:32:15.861Z,30.00
2023-05-04T19:34:51.932Z,66.55
2023-05-04T19:37:21.210Z,333.42
2023-05-04T19:39:49.798Z,177.90
2023-05-04T19:42:17.449Z,109.63
2023-05-04T19:44:45.231Z,117.88
2023-05-04T19:47:12.870Z,23.25
2023-05-04T19:49:40.976Z,12.98
2023-05-04T19:52:09.182Z,8.82
2023-05-04T19:54:38.370Z,14.23
2023-05-04T19:57:06.519Z,133.00
2023-05-04T19:59:34.636Z,440.08
2023-05-04T20:02:02.357Z,362.10
2023-05-04T20:04:30.503Z,408.85
2023-05-04T20:06:58.208Z,342.63
2023-05-04T20:09:26.205Z,280.20
2023-05-04T20:11:54.791Z,250.88
2023-05-04T20:14:22.657Z,199.50
2023-05-04T20:16:51.494Z,198.00
2023-05-04T20:19:19.252Z,166.25
2023-05-04T20:21:47.913Z,71.03
2023-05-04T20:24:16.155Z,209.07
2023-05-04T20:26:44.451Z,414.00
2023-05-04T20:29:12.503Z,199.70
2023-05-04T20:31:41.443Z,200.83
2023-05-04T20:34:09.592Z,146.93
2023-05-04T20:36:37.202Z,143.10
2023-05-04T20:39:06.943Z,79.07
2023-05-04T20:41:34.618Z,39.30
2023-05-04T20:44:02.751Z,25.88
2023-05-04T20:46:31.945Z,18.65
2023-05-04T20:49:02.820Z,20.13
2023-05-04T20:51:31.190Z,30.73
2023-05-04T20:53:58.715Z,62.47
2023-05-04T20:56:26.644Z,146.10
2023-05-04T20:58:54.966Z,119.05
2023-05-04T21:01:23.314Z,136.90
2023-05-04T21:03:51.434Z,66.70
2023-05-04T21:06:19.219Z,62.88
2023-05-04T21:08:47.245Z,123.60
2023-05-04T21:11:14.860Z,56.92
2023-05-04T21:13:42.983Z,12.93
2023-05-04T21:16:11.566Z,15.75
2023-05-04T21:18:39.752Z,135.05
2023-05-04T21:21:07.735Z,99.18
2023-05-04T21:23:35.448Z,49.87
2023-05-04T21:26:04.262Z,72.63
2023-05-04T21:28:32.258Z,43.25
2023-05-04T21:31:00.505Z,45.10
2023-05-04T21:33:28.666Z,81.75
2023-05-04T21:35:56.452Z,45.50
2023-05-04T21:38:24.541Z,52.40
2023-05-04T21:40:52.101Z,24.08
2023-05-04T21:43:20.113Z,22.77
2023-05-04T21:45:47.794Z,29.48
2023-05-04T21:48:15.864Z,64.22
2023-05-04T21:50:43.957Z,27.63
2023-05-04T21:53:12.140Z,30.43
2023-05-04T21:55:39.916Z,24.55
2023-05-04T21:58:07.553Z,23.92
2023-05-04T22:00:35.200Z,31.70
2023-05-04T22:03:03.499Z,120.45
2023-05-04T22:05:31.827Z,85.80
2023-05-04T22:08:01.007Z,77.40
2023-05-04T22:10:29.391Z,95.13
2023-05-04T22:12:57.802Z,91.07
2023-05-04T22:15:29.636Z,83.25
2023-05-04T22:18:05.762Z,72.35
2023-05-04T22:20:34.738Z,54.95
2023-05-04T22:23:02.389Z,45.67
2023-05-04T22:25:30.018Z,41.58
2023-05-04T22:27:58.278Z,32.05
2023-05-04T22:30:26.998Z,20.75
2023-05-04T22:32:57.100Z,26.00
2023-05-04T22:35:25.504Z,16.02
2023-05-04T22:37:53.234Z,14.23
2023-05-04T22:40:21.363Z,21.52
2023-05-04T22:42:49.344Z,13.82
2023-05-04T22:45:18.323Z,13.10
2023-05-04T22:47:46.903Z,17.63
2023-05-04T22:50:15.155Z,13.55
2023-05-04T22:52:42.836Z,13.98
2023-05-04T22:55:10.386Z,14.15
2023-05-04T22:57:38.820Z,11.60
2023-05-04T23:00:08.483Z,15.27
2023-05-04T23:02:36.887Z,13.87
2023-05-04T23:05:05.975Z,12.30
2023-05-04T23:07:33.550Z,11.63
2023-05-04T23:10:02.238Z,13.77
2023-05-04T23:12:30.173Z,15.75
2023-05-04T23:14:57.730Z,14.43
2023-05-04T23:17:26.349Z,14.93
2023-05-04T23:19:54.321Z,12.27
2023-05-04T23:22:22.187Z,14.57
2023-05-04T23:24:50.121Z,16.03
2023-05-04T23:27:18.400Z,11.38
2023-05-04T23:29:46.205Z,11.55
2023-05-04T23:32:14.680Z,9.90
2023-05-04T23:34:42.582Z,9.93
2023-05-04T23:37:10.185Z,10.52
2023-05-04T23:39:38.163Z,12.77
2023-05-04T23:42:05.940Z,10.02
2023-05-04T23:44:33.908Z,13.75
2023-05-04T23:47:04.477Z,9.38
2023-05-04T23:49:32.449Z,11.17
2023-05-04T23:51:59.938Z,10.67
2023-05-04T23:54:27.452Z,11.45
2023-05-04T23:56:55.401Z,10.35
2023-05-04T23:59:23.205Z,12.07
